createdAt,value
2018-08-22T00:07:55.830Z,11.37
2018-08-22T00:17:57.222Z,11.67
2018-08-22T00:27:58.677Z,11.20
2018-08-22T00:37:59.956Z,11.60
2018-08-22T00:48:01.235Z,11.53
2018-08-22T00:58:02.502Z,11.77
2018-08-22T01:08:06.423Z,11.93
2018-08-22T01:18:07.810Z,11.40
2018-08-22T01:28:09.078Z,12.07
2018-08-22T01:38:10.351Z,12.67
2018-08-22T01:48:11.624Z,12.40
2018-08-22T01:58:13.665Z,11.53
2018-08-22T02:08:14.924Z,11.70
2018-08-22T02:18:16.239Z,12.63
2018-08-22T02:28:18.263Z,12.67
2018-08-22T02:38:19.516Z,12.97
2018-08-22T02:48:20.780Z,11.77
2018-08-22T02:58:22.101Z,11.47
2018-08-22T03:08:23.384Z,12.10
2018-08-22T03:18:24.660Z,12.10
2018-08-22T03:28:25.936Z,11.37
2018-08-22T03:38:27.208Z,12.40
2018-08-22T03:48:28.445Z,12.50
2018-08-22T03:58:29.690Z,12.40
2018-08-22T04:08:30.943Z,12.80
2018-08-22T04:18:32.187Z,12.97
2018-08-22T04:28:33.437Z,12.07
2018-08-22T04:38:34.714Z,13.47
2018-08-22T04:48:36.834Z,13.33
2018-08-22T04:58:38.107Z,11.60
2018-08-22T05:08:40.252Z,12.17
2018-08-22T05:18:41.512Z,11.73
2018-08-22T05:28:43.552Z,11.30
2018-08-22T05:38:44.814Z,11.43
2018-08-22T05:48:46.110Z,11.80
2018-08-22T05:58:48.110Z,11.77
2018-08-22T06:08:49.368Z,12.30
2018-08-22T06:18:50.764Z,12.67
2018-08-22T06:28:52.048Z,12.43
2018-08-22T06:38:53.344Z,13.30
2018-08-22T06:48:54.597Z,11.83
2018-08-22T06:58:55.854Z,11.47
2018-08-22T07:08:57.139Z,11.43
2018-08-22T07:18:58.416Z,10.43
2018-08-22T07:29:00.501Z,10.33
2018-08-22T07:39:02.239Z,10.43
2018-08-22T07:49:04.546Z,9.48
2018-08-22T07:59:09.096Z,8.85
2018-08-22T08:09:10.446Z,8.05
2018-08-22T08:19:11.700Z,7.25
2018-08-22T08:29:13.713Z,8.80
2018-08-22T08:39:14.982Z,7.55
2018-08-22T08:49:16.242Z,7.30
2018-08-22T08:59:18.610Z,6.47
2018-08-22T09:09:20.627Z,4.70
2018-08-22T09:19:22.670Z,5.70
2018-08-22T09:29:23.927Z,5.87
2018-08-22T09:39:26.083Z,5.85
2018-08-22T09:49:27.213Z,4.70
2018-08-22T09:59:28.504Z,5.00
2018-08-22T10:09:29.812Z,4.57
2018-08-22T10:19:31.087Z,4.57
2018-08-22T10:29:32.926Z,4.93
2018-08-22T10:39:35.077Z,5.30
2018-08-22T10:49:38.293Z,5.37
2018-08-22T10:59:40.501Z,5.10
2018-08-22T11:09:42.580Z,5.78
2018-08-22T11:19:44.575Z,6.37
2018-08-22T11:29:46.555Z,6.12
2018-08-22T11:39:49.057Z,6.25
2018-08-22T11:49:51.531Z,6.47
2018-08-22T11:59:53.477Z,6.47
2018-08-22T12:09:55.393Z,5.93
2018-08-22T12:19:58.528Z,5.93
2018-08-22T12:30:01.912Z,6.85
2018-08-22T12:40:05.718Z,6.50
2018-08-22T12:50:07.098Z,6.15
2018-08-22T13:00:08.851Z,6.57
2018-08-22T13:10:10.278Z,6.53
2018-08-22T13:20:11.748Z,6.57
2018-08-22T13:30:13.213Z,6.95
2018-08-22T13:40:14.771Z,7.15
2018-08-22T13:50:16.348Z,6.50
2018-08-22T14:00:17.832Z,7.07
2018-08-22T14:10:20.197Z,6.22
2018-08-22T14:20:25.275Z,6.85
2018-08-22T14:30:26.638Z,6.62
2018-08-22T14:40:28.040Z,6.78
2018-08-22T14:50:31.199Z,7.37
2018-08-22T15:00:32.730Z,7.18
2018-08-22T15:10:34.056Z,6.97
2018-08-22T15:20:35.343Z,6.72
2018-08-22T15:30:38.060Z,6.78
2018-08-22T15:40:39.367Z,6.87
2018-08-22T15:50:41.475Z,6.55
2018-08-22T16:00:43.006Z,7.15
2018-08-22T16:10:44.992Z,6.35
2018-08-22T16:20:46.330Z,6.87
2018-08-22T16:30:56.860Z,7.37
2018-08-22T16:40:51.568Z,6.37
2018-08-22T16:50:53.163Z,6.97
2018-08-22T17:00:54.518Z,7.25
2018-08-22T17:10:56.590Z,7.10
2018-08-22T17:20:58.788Z,7.20
2018-08-22T17:31:01.728Z,8.30
2018-08-22T17:41:03.221Z,7.72
2018-08-22T17:51:04.752Z,8.10
2018-08-22T18:01:08.389Z,8.37
2018-08-22T18:11:09.843Z,8.70
2018-08-22T18:21:11.333Z,10.07
2018-08-22T18:31:14.743Z,10.50
2018-08-22T18:41:16.152Z,9.80
2018-08-22T18:51:17.524Z,9.40
2018-08-22T19:01:18.826Z,9.90
2018-08-22T19:11:20.136Z,9.00
2018-08-22T19:21:22.928Z,9.90
2018-08-22T19:31:24.413Z,10.23
2018-08-22T19:41:25.967Z,9.13
2018-08-22T19:51:27.252Z,10.17
2018-08-22T20:01:28.519Z,10.47
2018-08-22T20:11:30.074Z,10.47
2018-08-22T20:21:32.353Z,10.43
2018-08-22T20:31:33.677Z,11.70
2018-08-22T20:41:35.277Z,10.43
2018-08-22T20:51:36.574Z,11.63
2018-08-22T21:01:37.948Z,11.87
2018-08-22T21:11:39.428Z,11.40
2018-08-22T21:21:43.499Z,11.20
2018-08-22T21:31:45.615Z,12.07
2018-08-22T21:41:47.076Z,12.03
2018-08-22T21:51:51.933Z,11.27
2018-08-22T22:01:56.119Z,11.50
2018-08-22T22:11:57.552Z,11.97
2018-08-22T22:21:58.980Z,13.10
2018-08-22T22:32:01.907Z,12.70
2018-08-22T22:42:03.269Z,12.77
2018-08-22T22:52:04.625Z,12.90
2018-08-22T23:02:05.902Z,11.13
2018-08-22T23:12:07.191Z,12.80
2018-08-22T23:22:08.454Z,13.23
2018-08-22T23:32:09.743Z,13.00
2018-08-22T23:42:11.012Z,12.77
2018-08-22T23:52:12.279Z,12.73
